sensor_id;sensor_type;location;lat;lon;timestamp;P1;durP1;ratioP1;P2;durP2;ratioP2
15202;SDS011;7702;51.046;5.184;2023-01-23T00:01:48;43.63;;;23.27;;
15202;SDS011;7702;51.046;5.184;2023-01-23T00:04:14;39.43;;;21.30;;
15202;SDS011;7702;51.046;5.184;2023-01-23T00:06:41;41.33;;;21.27;;
15202;SDS011;7702;51.046;5.184;2023-01-23T00:09:07;35.97;;;20.90;;
15202;SDS011;7702;51.046;5.184;2023-01-23T00:11:33;40.07;;;22.30;;
15202;SDS011;7702;51.046;5.184;2023-01-23T00:14:00;37.17;;;21.53;;
15202;SDS011;7702;51.046;5.184;2023-01-23T00:16:27;40.30;;;22.33;;
15202;SDS011;7702;51.046;5.184;2023-01-23T00:18:56;43.70;;;22.73;;
15202;SDS011;7702;51.046;5.184;2023-01-23T00:21:25;44.17;;;22.97;;
15202;SDS011;7702;51.046;5.184;2023-01-23T00:23:53;41.53;;;22.13;;
15202;SDS011;7702;51.046;5.184;2023-01-23T00:26:21;41.07;;;23.40;;
15202;SDS011;7702;51.046;5.184;2023-01-23T00:28:49;45.87;;;22.70;;
15202;SDS011;7702;51.046;5.184;2023-01-23T00:31:16;48.50;;;23.43;;
15202;SDS011;7702;51.046;5.184;2023-01-23T00:33:52;44.20;;;23.40;;
15202;SDS011;7702;51.046;5.184;2023-01-23T00:36:19;42.13;;;24.10;;
15202;SDS011;7702;51.046;5.184;2023-01-23T00:38:45;40.33;;;22.83;;
15202;SDS011;7702;51.046;5.184;2023-01-23T00:41:11;40.03;;;22.50;;
15202;SDS011;7702;51.046;5.184;2023-01-23T00:43:36;38.10;;;22.23;;
15202;SDS011;7702;51.046;5.184;2023-01-23T00:46:02;42.03;;;21.97;;
15202;SDS011;7702;51.046;5.184;2023-01-23T00:48:28;38.57;;;21.67;;
15202;SDS011;7702;51.046;5.184;2023-01-23T00:50:55;43.63;;;23.30;;
15202;SDS011;7702;51.046;5.184;2023-01-23T00:53:20;43.90;;;23.20;;
15202;SDS011;7702;51.046;5.184;2023-01-23T00:55:46;40.53;;;22.40;;
15202;SDS011;7702;51.046;5.184;2023-01-23T00:58:12;47.67;;;23.57;;
15202;SDS011;7702;51.046;5.184;2023-01-23T01:00:38;44.20;;;22.17;;
15202;SDS011;7702;51.046;5.184;2023-01-23T01:03:04;44.30;;;22.13;;
15202;SDS011;7702;51.046;5.184;2023-01-23T01:05:31;45.97;;;23.73;;
15202;SDS011;7702;51.046;5.184;2023-01-23T01:07:57;43.20;;;23.70;;
15202;SDS011;7702;51.046;5.184;2023-01-23T01:10:23;41.53;;;23.30;;
15202;SDS011;7702;51.046;5.184;2023-01-23T01:12:53;48.47;;;23.70;;
15202;SDS011;7702;51.046;5.184;2023-01-23T01:15:20;48.17;;;24.33;;
15202;SDS011;7702;51.046;5.184;2023-01-23T01:17:46;44.33;;;24.20;;
15202;SDS011;7702;51.046;5.184;2023-01-23T01:20:12;45.93;;;23.43;;
15202;SDS011;7702;51.046;5.184;2023-01-23T01:22:38;44.23;;;23.67;;
15202;SDS011;7702;51.046;5.184;2023-01-23T01:25:04;49.13;;;23.27;;
15202;SDS011;7702;51.046;5.184;2023-01-23T01:27:30;44.90;;;23.20;;
15202;SDS011;7702;51.046;5.184;2023-01-23T01:29:56;50.47;;;24.40;;
15202;SDS011;7702;51.046;5.184;2023-01-23T01:32:21;52.23;;;23.83;;
15202;SDS011;7702;51.046;5.184;2023-01-23T01:34:47;46.23;;;23.50;;
15202;SDS011;7702;51.046;5.184;2023-01-23T01:37:14;45.30;;;23.93;;
15202;SDS011;7702;51.046;5.184;2023-01-23T01:39:40;44.10;;;22.43;;
15202;SDS011;7702;51.046;5.184;2023-01-23T01:42:06;46.50;;;23.03;;
15202;SDS011;7702;51.046;5.184;2023-01-23T01:47:54;48.40;;;24.87;;
15202;SDS011;7702;51.046;5.184;2023-01-23T01:50:20;47.17;;;22.60;;
15202;SDS011;7702;51.046;5.184;2023-01-23T01:52:46;49.27;;;24.43;;
15202;SDS011;7702;51.046;5.184;2023-01-23T01:55:11;51.93;;;25.67;;
15202;SDS011;7702;51.046;5.184;2023-01-23T01:57:39;49.83;;;23.23;;
15202;SDS011;7702;51.046;5.184;2023-01-23T02:00:12;52.60;;;24.23;;
15202;SDS011;7702;51.046;5.184;2023-01-23T02:05:23;54.17;;;25.23;;
15202;SDS011;7702;51.046;5.184;2023-01-23T02:10:49;51.20;;;23.30;;
15202;SDS011;7702;51.046;5.184;2023-01-23T02:13:21;49.17;;;23.53;;
15202;SDS011;7702;51.046;5.184;2023-01-23T02:15:56;41.40;;;23.23;;
15202;SDS011;7702;51.046;5.184;2023-01-23T02:18:23;57.80;;;25.93;;
15202;SDS011;7702;51.046;5.184;2023-01-23T02:20:51;50.10;;;24.50;;
15202;SDS011;7702;51.046;5.184;2023-01-23T02:26:03;48.63;;;23.30;;
15202;SDS011;7702;51.046;5.184;2023-01-23T02:31:07;54.33;;;25.40;;
15202;SDS011;7702;51.046;5.184;2023-01-23T02:36:00;48.10;;;22.63;;
15202;SDS011;7702;51.046;5.184;2023-01-23T02:38:36;51.40;;;24.43;;
15202;SDS011;7702;51.046;5.184;2023-01-23T02:41:09;56.63;;;23.83;;
15202;SDS011;7702;51.046;5.184;2023-01-23T02:43:37;57.17;;;24.60;;
15202;SDS011;7702;51.046;5.184;2023-01-23T02:46:04;52.53;;;24.53;;
15202;SDS011;7702;51.046;5.184;2023-01-23T02:48:32;51.10;;;24.20;;
15202;SDS011;7702;51.046;5.184;2023-01-23T02:50:58;55.57;;;24.73;;
15202;SDS011;7702;51.046;5.184;2023-01-23T02:53:24;51.23;;;22.83;;
15202;SDS011;7702;51.046;5.184;2023-01-23T02:55:50;52.03;;;25.13;;
15202;SDS011;7702;51.046;5.184;2023-01-23T02:58:16;51.47;;;23.73;;
15202;SDS011;7702;51.046;5.184;2023-01-23T03:01:00;54.60;;;24.30;;
15202;SDS011;7702;51.046;5.184;2023-01-23T03:03:27;52.60;;;23.23;;
15202;SDS011;7702;51.046;5.184;2023-01-23T03:05:54;49.80;;;24.30;;
15202;SDS011;7702;51.046;5.184;2023-01-23T03:08:21;51.30;;;25.33;;
15202;SDS011;7702;51.046;5.184;2023-01-23T03:10:47;51.60;;;25.03;;
15202;SDS011;7702;51.046;5.184;2023-01-23T03:13:13;53.50;;;25.00;;
15202;SDS011;7702;51.046;5.184;2023-01-23T03:15:39;65.50;;;26.50;;
15202;SDS011;7702;51.046;5.184;2023-01-23T03:18:06;59.03;;;25.37;;
15202;SDS011;7702;51.046;5.184;2023-01-23T03:20:39;61.97;;;25.93;;
15202;SDS011;7702;51.046;5.184;2023-01-23T03:23:06;65.33;;;24.00;;
15202;SDS011;7702;51.046;5.184;2023-01-23T03:25:32;58.63;;;25.17;;
15202;SDS011;7702;51.046;5.184;2023-01-23T03:27:58;61.00;;;25.93;;
15202;SDS011;7702;51.046;5.184;2023-01-23T03:30:23;61.90;;;27.43;;
15202;SDS011;7702;51.046;5.184;2023-01-23T03:32:50;63.33;;;26.80;;
15202;SDS011;7702;51.046;5.184;2023-01-23T03:35:16;56.27;;;26.20;;
15202;SDS011;7702;51.046;5.184;2023-01-23T03:37:47;54.57;;;26.23;;
15202;SDS011;7702;51.046;5.184;2023-01-23T03:40:20;57.97;;;25.13;;
15202;SDS011;7702;51.046;5.184;2023-01-23T03:43:06;59.83;;;25.30;;
15202;SDS011;7702;51.046;5.184;2023-01-23T03:45:32;52.67;;;25.33;;
15202;SDS011;7702;51.046;5.184;2023-01-23T03:47:58;66.63;;;27.67;;
15202;SDS011;7702;51.046;5.184;2023-01-23T03:50:24;57.77;;;25.90;;
15202;SDS011;7702;51.046;5.184;2023-01-23T03:52:49;60.97;;;25.77;;
15202;SDS011;7702;51.046;5.184;2023-01-23T03:55:15;58.67;;;25.07;;
15202;SDS011;7702;51.046;5.184;2023-01-23T03:57:41;59.03;;;25.60;;
15202;SDS011;7702;51.046;5.184;2023-01-23T04:00:07;60.17;;;25.40;;
15202;SDS011;7702;51.046;5.184;2023-01-23T04:02:34;55.87;;;24.93;;
15202;SDS011;7702;51.046;5.184;2023-01-23T04:04:59;67.97;;;27.17;;
15202;SDS011;7702;51.046;5.184;2023-01-23T04:07:25;59.83;;;25.17;;
15202;SDS011;7702;51.046;5.184;2023-01-23T04:09:51;52.30;;;24.90;;
15202;SDS011;7702;51.046;5.184;2023-01-23T04:12:16;60.10;;;24.47;;
15202;SDS011;7702;51.046;5.184;2023-01-23T04:14:42;58.77;;;25.33;;
15202;SDS011;7702;51.046;5.184;2023-01-23T04:17:08;54.47;;;25.40;;
15202;SDS011;7702;51.046;5.184;2023-01-23T04:19:34;55.37;;;24.63;;
15202;SDS011;7702;51.046;5.184;2023-01-23T04:22:00;59.47;;;24.93;;
15202;SDS011;7702;51.046;5.184;2023-01-23T04:24:26;58.20;;;25.13;;
15202;SDS011;7702;51.046;5.184;2023-01-23T04:26:52;55.60;;;25.77;;
15202;SDS011;7702;51.046;5.184;2023-01-23T04:29:18;56.23;;;26.00;;
15202;SDS011;7702;51.046;5.184;2023-01-23T04:31:44;55.57;;;25.23;;
15202;SDS011;7702;51.046;5.184;2023-01-23T04:34:10;54.80;;;24.17;;
15202;SDS011;7702;51.046;5.184;2023-01-23T04:36:36;62.97;;;26.30;;
15202;SDS011;7702;51.046;5.184;2023-01-23T04:39:02;59.40;;;25.10;;
15202;SDS011;7702;51.046;5.184;2023-01-23T04:41:29;55.13;;;25.20;;
15202;SDS011;7702;51.046;5.184;2023-01-23T04:43:56;52.73;;;25.23;;
15202;SDS011;7702;51.046;5.184;2023-01-23T04:46:42;60.87;;;25.67;;
15202;SDS011;7702;51.046;5.184;2023-01-23T04:49:07;59.40;;;25.23;;
15202;SDS011;7702;51.046;5.184;2023-01-23T04:51:33;54.97;;;25.77;;
15202;SDS011;7702;51.046;5.184;2023-01-23T04:54:00;65.00;;;24.97;;
15202;SDS011;7702;51.046;5.184;2023-01-23T04:56:26;48.97;;;23.87;;
15202;SDS011;7702;51.046;5.184;2023-01-23T04:58:52;56.10;;;25.30;;
15202;SDS011;7702;51.046;5.184;2023-01-23T05:01:17;49.70;;;23.53;;
15202;SDS011;7702;51.046;5.184;2023-01-23T05:03:47;51.50;;;24.00;;
15202;SDS011;7702;51.046;5.184;2023-01-23T05:06:13;56.93;;;25.60;;
15202;SDS011;7702;51.046;5.184;2023-01-23T05:08:39;58.23;;;25.07;;
15202;SDS011;7702;51.046;5.184;2023-01-23T05:11:05;54.93;;;24.80;;
15202;SDS011;7702;51.046;5.184;2023-01-23T05:13:30;58.40;;;26.03;;
15202;SDS011;7702;51.046;5.184;2023-01-23T05:15:56;55.07;;;25.17;;
15202;SDS011;7702;51.046;5.184;2023-01-23T05:18:22;53.80;;;23.97;;
15202;SDS011;7702;51.046;5.184;2023-01-23T05:20:47;50.67;;;23.83;;
15202;SDS011;7702;51.046;5.184;2023-01-23T05:23:13;56.50;;;24.47;;
15202;SDS011;7702;51.046;5.184;2023-01-23T05:25:39;57.00;;;25.73;;
15202;SDS011;7702;51.046;5.184;2023-01-23T05:28:04;49.40;;;23.83;;
15202;SDS011;7702;51.046;5.184;2023-01-23T05:30:30;52.83;;;23.53;;
15202;SDS011;7702;51.046;5.184;2023-01-23T05:32:56;52.13;;;24.13;;
15202;SDS011;7702;51.046;5.184;2023-01-23T05:35:22;52.23;;;24.47;;
15202;SDS011;7702;51.046;5.184;2023-01-23T05:37:48;48.77;;;22.90;;
15202;SDS011;7702;51.046;5.184;2023-01-23T05:40:15;55.87;;;24.30;;
15202;SDS011;7702;51.046;5.184;2023-01-23T05:42:41;51.50;;;23.87;;
15202;SDS011;7702;51.046;5.184;2023-01-23T05:45:07;51.20;;;23.80;;
15202;SDS011;7702;51.046;5.184;2023-01-23T05:47:33;53.83;;;23.70;;
15202;SDS011;7702;51.046;5.184;2023-01-23T05:49:59;50.13;;;23.67;;
15202;SDS011;7702;51.046;5.184;2023-01-23T05:52:25;51.97;;;23.40;;
15202;SDS011;7702;51.046;5.184;2023-01-23T05:54:51;50.53;;;25.07;;
15202;SDS011;7702;51.046;5.184;2023-01-23T05:57:17;55.60;;;24.53;;
15202;SDS011;7702;51.046;5.184;2023-01-23T05:59:43;47.53;;;23.97;;
15202;SDS011;7702;51.046;5.184;2023-01-23T06:02:09;44.83;;;23.63;;
15202;SDS011;7702;51.046;5.184;2023-01-23T06:04:35;53.23;;;24.53;;
15202;SDS011;7702;51.046;5.184;2023-01-23T06:07:00;50.33;;;24.63;;
15202;SDS011;7702;51.046;5.184;2023-01-23T06:09:26;48.73;;;24.10;;
15202;SDS011;7702;51.046;5.184;2023-01-23T06:11:52;51.03;;;23.60;;
15202;SDS011;7702;51.046;5.184;2023-01-23T06:14:17;47.50;;;22.83;;
15202;SDS011;7702;51.046;5.184;2023-01-23T06:16:43;50.73;;;24.27;;
15202;SDS011;7702;51.046;5.184;2023-01-23T06:19:09;50.77;;;23.63;;
15202;SDS011;7702;51.046;5.184;2023-01-23T06:27:59;45.13;;;23.97;;
15202;SDS011;7702;51.046;5.184;2023-01-23T06:30:25;44.10;;;22.17;;
15202;SDS011;7702;51.046;5.184;2023-01-23T06:32:51;41.47;;;22.23;;
15202;SDS011;7702;51.046;5.184;2023-01-23T06:35:17;40.97;;;23.07;;
15202;SDS011;7702;51.046;5.184;2023-01-23T06:37:42;46.30;;;23.23;;
15202;SDS011;7702;51.046;5.184;2023-01-23T06:40:08;44.23;;;24.27;;
15202;SDS011;7702;51.046;5.184;2023-01-23T06:42:37;42.97;;;22.70;;
15202;SDS011;7702;51.046;5.184;2023-01-23T06:45:04;48.77;;;24.07;;
15202;SDS011;7702;51.046;5.184;2023-01-23T06:47:30;42.00;;;22.57;;
15202;SDS011;7702;51.046;5.184;2023-01-23T06:49:56;46.87;;;23.70;;
15202;SDS011;7702;51.046;5.184;2023-01-23T06:52:21;44.63;;;22.83;;
15202;SDS011;7702;51.046;5.184;2023-01-23T06:54:47;48.80;;;23.83;;
15202;SDS011;7702;51.046;5.184;2023-01-23T06:57:13;44.90;;;23.03;;
15202;SDS011;7702;51.046;5.184;2023-01-23T06:59:38;49.27;;;24.13;;
15202;SDS011;7702;51.046;5.184;2023-01-23T07:02:05;42.83;;;22.73;;
15202;SDS011;7702;51.046;5.184;2023-01-23T07:04:31;46.30;;;23.73;;
15202;SDS011;7702;51.046;5.184;2023-01-23T07:06:57;44.67;;;24.00;;
15202;SDS011;7702;51.046;5.184;2023-01-23T07:09:22;48.70;;;25.30;;
15202;SDS011;7702;51.046;5.184;2023-01-23T07:11:48;47.87;;;24.60;;
15202;SDS011;7702;51.046;5.184;2023-01-23T07:14:14;45.83;;;24.37;;
15202;SDS011;7702;51.046;5.184;2023-01-23T07:16:40;48.03;;;24.67;;
15202;SDS011;7702;51.046;5.184;2023-01-23T07:19:05;53.00;;;25.03;;
15202;SDS011;7702;51.046;5.184;2023-01-23T07:21:31;52.87;;;25.53;;
15202;SDS011;7702;51.046;5.184;2023-01-23T07:23:57;49.47;;;24.17;;
15202;SDS011;7702;51.046;5.184;2023-01-23T07:26:23;48.07;;;23.33;;
15202;SDS011;7702;51.046;5.184;2023-01-23T07:28:49;48.50;;;24.03;;
15202;SDS011;7702;51.046;5.184;2023-01-23T07:31:15;46.83;;;24.63;;
15202;SDS011;7702;51.046;5.184;2023-01-23T07:33:40;50.03;;;24.33;;
15202;SDS011;7702;51.046;5.184;2023-01-23T07:36:06;54.93;;;25.07;;
15202;SDS011;7702;51.046;5.184;2023-01-23T07:38:33;49.40;;;23.83;;
15202;SDS011;7702;51.046;5.184;2023-01-23T07:40:59;49.33;;;26.37;;
15202;SDS011;7702;51.046;5.184;2023-01-23T07:43:25;56.03;;;27.47;;
15202;SDS011;7702;51.046;5.184;2023-01-23T07:45:51;60.27;;;27.17;;
15202;SDS011;7702;51.046;5.184;2023-01-23T07:48:16;54.87;;;28.20;;
15202;SDS011;7702;51.046;5.184;2023-01-23T07:50:43;59.50;;;29.07;;
15202;SDS011;7702;51.046;5.184;2023-01-23T07:53:08;58.53;;;29.30;;
15202;SDS011;7702;51.046;5.184;2023-01-23T07:55:36;48.70;;;26.50;;
15202;SDS011;7702;51.046;5.184;2023-01-23T07:58:02;55.90;;;28.53;;
15202;SDS011;7702;51.046;5.184;2023-01-23T08:00:28;59.33;;;31.13;;
15202;SDS011;7702;51.046;5.184;2023-01-23T08:02:54;57.60;;;33.37;;
15202;SDS011;7702;51.046;5.184;2023-01-23T08:05:20;56.03;;;29.00;;
15202;SDS011;7702;51.046;5.184;2023-01-23T08:07:46;52.50;;;26.20;;
15202;SDS011;7702;51.046;5.184;2023-01-23T08:10:12;54.57;;;27.13;;
15202;SDS011;7702;51.046;5.184;2023-01-23T08:12:38;50.60;;;25.00;;
15202;SDS011;7702;51.046;5.184;2023-01-23T08:15:04;52.77;;;26.23;;
15202;SDS011;7702;51.046;5.184;2023-01-23T08:17:30;49.20;;;25.27;;
15202;SDS011;7702;51.046;5.184;2023-01-23T08:19:56;54.67;;;26.33;;
15202;SDS011;7702;51.046;5.184;2023-01-23T08:22:21;47.73;;;25.57;;
15202;SDS011;7702;51.046;5.184;2023-01-23T08:24:47;59.13;;;26.53;;
15202;SDS011;7702;51.046;5.184;2023-01-23T08:27:13;46.90;;;25.50;;
15202;SDS011;7702;51.046;5.184;2023-01-23T08:29:39;46.47;;;25.00;;
15202;SDS011;7702;51.046;5.184;2023-01-23T08:32:04;44.57;;;24.73;;
15202;SDS011;7702;51.046;5.184;2023-01-23T08:34:30;47.07;;;24.70;;
15202;SDS011;7702;51.046;5.184;2023-01-23T08:36:56;45.83;;;24.23;;
15202;SDS011;7702;51.046;5.184;2023-01-23T08:39:22;46.97;;;27.00;;
15202;SDS011;7702;51.046;5.184;2023-01-23T08:41:48;42.57;;;23.90;;
15202;SDS011;7702;51.046;5.184;2023-01-23T08:44:15;43.53;;;24.40;;
15202;SDS011;7702;51.046;5.184;2023-01-23T08:46:40;49.43;;;25.60;;
15202;SDS011;7702;51.046;5.184;2023-01-23T08:49:07;40.43;;;23.37;;
15202;SDS011;7702;51.046;5.184;2023-01-23T08:51:33;47.10;;;26.43;;
15202;SDS011;7702;51.046;5.184;2023-01-23T08:53:59;39.27;;;23.63;;
15202;SDS011;7702;51.046;5.184;2023-01-23T08:56:25;53.17;;;36.23;;
15202;SDS011;7702;51.046;5.184;2023-01-23T08:58:51;67.27;;;50.23;;
15202;SDS011;7702;51.046;5.184;2023-01-23T09:01:18;47.27;;;30.73;;
15202;SDS011;7702;51.046;5.184;2023-01-23T09:03:45;39.47;;;23.90;;
15202;SDS011;7702;51.046;5.184;2023-01-23T09:06:11;53.03;;;31.83;;
15202;SDS011;7702;51.046;5.184;2023-01-23T09:08:38;39.60;;;25.00;;
15202;SDS011;7702;51.046;5.184;2023-01-23T09:11:05;57.43;;;40.83;;
15202;SDS011;7702;51.046;5.184;2023-01-23T09:13:32;38.33;;;24.23;;
15202;SDS011;7702;51.046;5.184;2023-01-23T09:15:59;38.63;;;24.17;;
15202;SDS011;7702;51.046;5.184;2023-01-23T09:18:24;40.83;;;24.03;;
15202;SDS011;7702;51.046;5.184;2023-01-23T09:20:51;41.47;;;24.47;;
15202;SDS011;7702;51.046;5.184;2023-01-23T09:23:18;40.73;;;23.93;;
15202;SDS011;7702;51.046;5.184;2023-01-23T09:25:44;38.07;;;21.57;;
15202;SDS011;7702;51.046;5.184;2023-01-23T09:28:10;38.33;;;23.03;;
15202;SDS011;7702;51.046;5.184;2023-01-23T09:30:36;43.17;;;23.90;;
15202;SDS011;7702;51.046;5.184;2023-01-23T09:33:02;38.23;;;23.03;;
15202;SDS011;7702;51.046;5.184;2023-01-23T09:35:28;38.57;;;22.97;;
15202;SDS011;7702;51.046;5.184;2023-01-23T09:37:54;37.03;;;22.97;;
15202;SDS011;7702;51.046;5.184;2023-01-23T09:40:30;41.70;;;24.13;;
15202;SDS011;7702;51.046;5.184;2023-01-23T09:43:04;40.23;;;23.30;;
15202;SDS011;7702;51.046;5.184;2023-01-23T09:51:13;35.70;;;23.87;;
15202;SDS011;7702;51.046;5.184;2023-01-23T09:53:50;39.93;;;22.77;;
15202;SDS011;7702;51.046;5.184;2023-01-23T09:59:45;40.53;;;22.57;;
15202;SDS011;7702;51.046;5.184;2023-01-23T10:01:59;39.73;;;22.10;;
15202;SDS011;7702;51.046;5.184;2023-01-23T10:04:25;34.77;;;22.63;;
15202;SDS011;7702;51.046;5.184;2023-01-23T10:06:55;39.87;;;23.40;;
15202;SDS011;7702;51.046;5.184;2023-01-23T10:12:20;40.77;;;23.60;;
15202;SDS011;7702;51.046;5.184;2023-01-23T10:15:00;40.17;;;22.93;;
15202;SDS011;7702;51.046;5.184;2023-01-23T10:17:38;37.03;;;22.23;;
15202;SDS011;7702;51.046;5.184;2023-01-23T10:22:43;40.23;;;23.90;;
15202;SDS011;7702;51.046;5.184;2023-01-23T10:25:21;41.23;;;22.70;;
15202;SDS011;7702;51.046;5.184;2023-01-23T10:27:50;39.47;;;27.77;;
15202;SDS011;7702;51.046;5.184;2023-01-23T10:30:26;39.90;;;24.23;;
15202;SDS011;7702;51.046;5.184;2023-01-23T10:33:01;37.23;;;23.03;;
15202;SDS011;7702;51.046;5.184;2023-01-23T10:35:43;40.70;;;24.93;;
15202;SDS011;7702;51.046;5.184;2023-01-23T10:41:21;40.73;;;25.33;;
15202;SDS011;7702;51.046;5.184;2023-01-23T10:43:51;38.93;;;23.90;;
15202;SDS011;7702;51.046;5.184;2023-01-23T10:46:22;40.07;;;27.67;;
15202;SDS011;7702;51.046;5.184;2023-01-23T10:48:52;36.70;;;21.97;;
15202;SDS011;7702;51.046;5.184;2023-01-23T10:56:35;40.00;;;24.63;;
15202;SDS011;7702;51.046;5.184;2023-01-23T10:59:12;51.63;;;44.43;;
15202;SDS011;7702;51.046;5.184;2023-01-23T11:04:28;44.63;;;34.77;;
15202;SDS011;7702;51.046;5.184;2023-01-23T11:07:00;48.70;;;38.50;;
15202;SDS011;7702;51.046;5.184;2023-01-23T11:09:31;35.93;;;22.13;;
15202;SDS011;7702;51.046;5.184;2023-01-23T11:11:58;35.50;;;21.43;;
15202;SDS011;7702;51.046;5.184;2023-01-23T11:14:25;37.83;;;25.33;;
15202;SDS011;7702;51.046;5.184;2023-01-23T11:16:58;35.80;;;22.10;;
15202;SDS011;7702;51.046;5.184;2023-01-23T11:19:26;46.23;;;30.37;;
15202;SDS011;7702;51.046;5.184;2023-01-23T11:22:00;35.50;;;22.63;;
15202;SDS011;7702;51.046;5.184;2023-01-23T11:27:02;33.83;;;22.83;;
15202;SDS011;7702;51.046;5.184;2023-01-23T11:32:34;34.67;;;22.43;;
15202;SDS011;7702;51.046;5.184;2023-01-23T11:35:14;34.97;;;22.30;;
15202;SDS011;7702;51.046;5.184;2023-01-23T11:37:43;38.37;;;22.80;;
15202;SDS011;7702;51.046;5.184;2023-01-23T11:40:17;34.87;;;21.63;;
15202;SDS011;7702;51.046;5.184;2023-01-23T11:42:44;33.97;;;21.83;;
15202;SDS011;7702;51.046;5.184;2023-01-23T11:45:13;34.60;;;22.80;;
15202;SDS011;7702;51.046;5.184;2023-01-23T11:50:44;34.40;;;22.03;;
15202;SDS011;7702;51.046;5.184;2023-01-23T11:53:27;33.90;;;21.07;;
15202;SDS011;7702;51.046;5.184;2023-01-23T12:05:07;32.43;;;20.10;;
15202;SDS011;7702;51.046;5.184;2023-01-23T12:08:18;33.53;;;21.17;;
15202;SDS011;7702;51.046;5.184;2023-01-23T12:11:14;35.37;;;22.10;;
15202;SDS011;7702;51.046;5.184;2023-01-23T12:21:37;32.17;;;20.90;;
15202;SDS011;7702;51.046;5.184;2023-01-23T12:26:39;33.30;;;21.07;;
15202;SDS011;7702;51.046;5.184;2023-01-23T12:40:03;35.17;;;22.47;;
15202;SDS011;7702;51.046;5.184;2023-01-23T12:48:02;32.40;;;21.37;;
15202;SDS011;7702;51.046;5.184;2023-01-23T12:50:44;35.73;;;22.97;;
15202;SDS011;7702;51.046;5.184;2023-01-23T12:53:21;33.03;;;22.73;;
15202;SDS011;7702;51.046;5.184;2023-01-23T12:58:39;33.63;;;22.00;;
15202;SDS011;7702;51.046;5.184;2023-01-23T13:04:13;33.73;;;20.67;;
15202;SDS011;7702;51.046;5.184;2023-01-23T13:14:44;36.63;;;21.47;;
15202;SDS011;7702;51.046;5.184;2023-01-23T13:20:08;34.73;;;22.43;;
15202;SDS011;7702;51.046;5.184;2023-01-23T13:23:44;34.03;;;20.83;;
15202;SDS011;7702;51.046;5.184;2023-01-23T13:28:46;30.70;;;20.37;;
15202;SDS011;7702;51.046;5.184;2023-01-23T13:33:58;30.47;;;20.80;;
15202;SDS011;7702;51.046;5.184;2023-01-23T13:36:29;28.27;;;19.13;;
15202;SDS011;7702;51.046;5.184;2023-01-23T13:41:26;26.40;;;17.87;;
15202;SDS011;7702;51.046;5.184;2023-01-23T13:52:16;25.83;;;18.23;;
15202;SDS011;7702;51.046;5.184;2023-01-23T13:55:12;29.73;;;18.33;;
15202;SDS011;7702;51.046;5.184;2023-01-23T13:58:01;28.27;;;18.43;;
15202;SDS011;7702;51.046;5.184;2023-01-23T14:00:29;30.67;;;19.30;;
15202;SDS011;7702;51.046;5.184;2023-01-23T14:03:09;32.30;;;22.57;;
15202;SDS011;7702;51.046;5.184;2023-01-23T14:06:16;27.23;;;18.37;;
15202;SDS011;7702;51.046;5.184;2023-01-23T14:09:00;31.57;;;20.13;;
15202;SDS011;7702;51.046;5.184;2023-01-23T14:11:33;33.80;;;24.43;;
15202;SDS011;7702;51.046;5.184;2023-01-23T14:14:03;34.00;;;23.97;;
15202;SDS011;7702;51.046;5.184;2023-01-23T14:16:48;31.43;;;18.63;;
15202;SDS011;7702;51.046;5.184;2023-01-23T14:19:22;29.73;;;20.30;;
15202;SDS011;7702;51.046;5.184;2023-01-23T14:21:53;30.50;;;20.23;;
15202;SDS011;7702;51.046;5.184;2023-01-23T14:24:28;31.10;;;20.90;;
15202;SDS011;7702;51.046;5.184;2023-01-23T14:27:32;31.87;;;20.80;;
15202;SDS011;7702;51.046;5.184;2023-01-23T14:30:08;33.27;;;20.37;;
15202;SDS011;7702;51.046;5.184;2023-01-23T14:32:39;30.53;;;20.67;;
15202;SDS011;7702;51.046;5.184;2023-01-23T14:37:51;26.23;;;18.43;;
15202;SDS011;7702;51.046;5.184;2023-01-23T14:40:20;29.27;;;19.63;;
15202;SDS011;7702;51.046;5.184;2023-01-23T14:42:55;30.43;;;18.43;;
15202;SDS011;7702;51.046;5.184;2023-01-23T14:45:32;28.87;;;18.83;;
15202;SDS011;7702;51.046;5.184;2023-01-23T14:48:00;27.70;;;19.07;;
15202;SDS011;7702;51.046;5.184;2023-01-23T14:50:29;31.27;;;19.57;;
15202;SDS011;7702;51.046;5.184;2023-01-23T14:52:58;29.57;;;18.53;;
15202;SDS011;7702;51.046;5.184;2023-01-23T14:55:29;28.13;;;18.37;;
15202;SDS011;7702;51.046;5.184;2023-01-23T14:57:57;25.63;;;17.60;;
15202;SDS011;7702;51.046;5.184;2023-01-23T15:00:24;26.03;;;17.77;;
15202;SDS011;7702;51.046;5.184;2023-01-23T15:02:51;24.37;;;17.40;;
15202;SDS011;7702;51.046;5.184;2023-01-23T15:05:25;26.30;;;17.37;;
15202;SDS011;7702;51.046;5.184;2023-01-23T15:10:21;27.87;;;19.03;;
15202;SDS011;7702;51.046;5.184;2023-01-23T15:15:17;30.77;;;21.00;;
15202;SDS011;7702;51.046;5.184;2023-01-23T15:17:45;26.13;;;18.87;;
15202;SDS011;7702;51.046;5.184;2023-01-23T15:23:12;27.00;;;19.40;;
15202;SDS011;7702;51.046;5.184;2023-01-23T15:25:44;28.37;;;20.33;;
15202;SDS011;7702;51.046;5.184;2023-01-23T15:28:29;29.53;;;20.07;;
15202;SDS011;7702;51.046;5.184;2023-01-23T15:30:56;26.40;;;18.20;;
15202;SDS011;7702;51.046;5.184;2023-01-23T15:33:29;28.03;;;19.47;;
15202;SDS011;7702;51.046;5.184;2023-01-23T15:36:05;25.03;;;18.40;;
15202;SDS011;7702;51.046;5.184;2023-01-23T15:38:36;27.03;;;18.70;;
15202;SDS011;7702;51.046;5.184;2023-01-23T15:41:07;27.23;;;18.90;;
15202;SDS011;7702;51.046;5.184;2023-01-23T15:43:33;29.10;;;19.73;;
15202;SDS011;7702;51.046;5.184;2023-01-23T15:45:59;29.83;;;19.27;;
15202;SDS011;7702;51.046;5.184;2023-01-23T15:48:25;27.97;;;19.00;;
15202;SDS011;7702;51.046;5.184;2023-01-23T15:50:52;25.33;;;17.93;;
15202;SDS011;7702;51.046;5.184;2023-01-23T15:53:18;24.67;;;19.47;;
15202;SDS011;7702;51.046;5.184;2023-01-23T15:55:44;25.80;;;19.27;;
15202;SDS011;7702;51.046;5.184;2023-01-23T15:58:11;28.80;;;20.10;;
15202;SDS011;7702;51.046;5.184;2023-01-23T16:00:38;27.27;;;20.07;;
15202;SDS011;7702;51.046;5.184;2023-01-23T16:03:04;26.50;;;18.53;;
15202;SDS011;7702;51.046;5.184;2023-01-23T16:05:32;23.87;;;18.30;;
15202;SDS011;7702;51.046;5.184;2023-01-23T16:08:00;28.60;;;19.10;;
15202;SDS011;7702;51.046;5.184;2023-01-23T16:10:37;27.80;;;18.40;;
15202;SDS011;7702;51.046;5.184;2023-01-23T16:13:03;27.73;;;19.20;;
15202;SDS011;7702;51.046;5.184;2023-01-23T16:15:31;27.73;;;18.97;;
15202;SDS011;7702;51.046;5.184;2023-01-23T16:17:58;24.53;;;17.57;;
15202;SDS011;7702;51.046;5.184;2023-01-23T16:20:37;25.70;;;18.07;;
15202;SDS011;7702;51.046;5.184;2023-01-23T16:23:10;27.57;;;19.07;;
15202;SDS011;7702;51.046;5.184;2023-01-23T16:25:45;30.53;;;19.23;;
15202;SDS011;7702;51.046;5.184;2023-01-23T16:30:38;28.47;;;19.27;;
15202;SDS011;7702;51.046;5.184;2023-01-23T16:33:04;26.13;;;18.83;;
15202;SDS011;7702;51.046;5.184;2023-01-23T16:35:30;26.83;;;17.03;;
15202;SDS011;7702;51.046;5.184;2023-01-23T16:37:56;27.60;;;18.70;;
15202;SDS011;7702;51.046;5.184;2023-01-23T16:40:24;23.37;;;17.27;;
15202;SDS011;7702;51.046;5.184;2023-01-23T16:42:52;23.07;;;16.73;;
15202;SDS011;7702;51.046;5.184;2023-01-23T16:45:29;26.13;;;18.03;;
15202;SDS011;7702;51.046;5.184;2023-01-23T16:47:56;25.53;;;17.73;;
15202;SDS011;7702;51.046;5.184;2023-01-23T16:50:25;23.33;;;16.87;;
15202;SDS011;7702;51.046;5.184;2023-01-23T16:55:29;23.20;;;17.77;;
15202;SDS011;7702;51.046;5.184;2023-01-23T16:57:58;23.60;;;17.17;;
15202;SDS011;7702;51.046;5.184;2023-01-23T17:00:25;24.93;;;18.30;;
15202;SDS011;7702;51.046;5.184;2023-01-23T17:02:53;24.53;;;17.83;;
15202;SDS011;7702;51.046;5.184;2023-01-23T17:05:21;23.57;;;17.80;;